Terminal Aerodrome Forecast
Issued by NWS Green Bay, WI

Home | Current Version | Previous Version | Text Only | Print | Product List | Glossary On
Versions: 1 2 3 4 5 6 7 8 9 10 11 12 13 14 15 16 17 18 19 20 21 22 23 24 25 26 27 28 29 30 31 32 33 34 35 36 37 38 39 40 41 42 43 44 45 46 47 48 49 50
124
FTUS43 KGRB 181956 AAB
TAFGRB
TAF AMD
KGRB 181956Z 1820/1918 24009KT 6SM HZ OVC010
     FM190400 23012G19KT P6SM SCT015 BKN100
     FM191300 27013G20KT P6SM FEW120=

USA.gov is the U.S. government's official web portal to all federal, state and local government web resources and services.